Bow Lima — 3EMG9 — position and weather

sailwx.info

Track history (hours):
 
Tides and Currents Weather Stations Pressure Air Temp Water Temp Dewpoint Dewpoint Depression Visibility Wind Speed Wind Dir Waves Ship Positions

Bow Lima

Last reported at 2017-Nov-20 00:26 UTC. Time now 2017-Nov-22 09:24 UTC.
Position N 37°57' E 023°35'.

Length 144 m; draft 10 m.

Type: Ship (hazmat cat A). MMSI: 353610000.

Date/timePositionNaut miles runAvg speedWind from/ knotsBaromVisibWave heightAir tempDewpointWater temp
2017-Nov-20 00:26N 37°57' E 023°35'0 0.0
2017-Nov-19 23:59N 37°57' E 023°35'0 0.0
2017-Nov-19 23:29N 37°57' E 023°35'0 0.0
2017-Nov-19 22:59N 37°57' E 023°35'0 0.0
2017-Nov-19 22:29N 37°57' E 023°35'0 0.0
2017-Nov-19 21:59N 37°57' E 023°35'0 0.0
2017-Nov-19 21:29N 37°57' E 023°35'0 0.0
2017-Nov-19 20:59N 37°57' E 023°35'0 0.0
2017-Nov-19 20:26N 37°57' E 023°35'0 0.0
2017-Nov-19 19:59N 37°57' E 023°35'0 0.0
2017-Nov-19 19:29N 37°57' E 023°35'0 0.0
2017-Nov-19 18:59N 37°57' E 023°35'0 0.0
2017-Nov-19 18:29N 37°57' E 023°35'0 0.0
2017-Nov-19 17:59N 37°57' E 023°35'0 0.0
2017-Nov-19 17:29N 37°57' E 023°35'0 0.0
2017-Nov-19 16:59N 37°57' E 023°35'0 0.0
2017-Nov-19 16:29N 37°57' E 023°35'0 0.0
2017-Nov-19 15:59N 37°57' E 023°35'0 0.0
2017-Nov-19 15:29N 37°57' E 023°35'0 0.0
2017-Nov-19 14:59N 37°57' E 023°35'0 0.0
2017-Nov-19 14:29N 37°57' E 023°35'0 0.0
2017-Nov-19 13:59N 37°57' E 023°35'0 0.0
2017-Nov-19 13:29N 37°57' E 023°35'0 0.0
2017-Nov-19 12:59N 37°57' E 023°35'0 0.0
2017-Nov-19 12:29N 37°57' E 023°35'0 0.0
2017-Nov-19 11:59N 37°57' E 023°35'0 0.0
2017-Nov-19 11:30N 37°57' E 023°35'2 3.0
2017-Nov-19 11:00N 37°56' E 023°35'2 3.7
2017-Nov-19 10:31N 37°54' E 023°35'1 2.1
2017-Nov-19 10:00N 37°53' E 023°36'4 7.1
2017-Nov-19 09:30N 37°51' E 023°39'3 6.7
2017-Nov-19 09:00N 37°48' E 023°41'611.2
2017-Nov-19 08:30N 37°43' E 023°44'815.1
2017-Nov-19 08:00N 37°36' E 023°48'816.1
2017-Nov-19 07:29N 37°27' E 023°48'816.9
2017-Nov-19 07:00N 37°19' E 023°48'918.1
2017-Nov-19 06:30N 37°10' E 023°49'43516.8
2017-Nov-18 04:32N 36°24' E 014°48'119.2
2017-Nov-18 04:30N 36°25' E 014°47'1019.4
2017-Nov-18 04:00N 36°27' E 014°36'1019.4
2017-Nov-18 03:30N 36°30' E 014°24'1019.4
2017-Nov-18 03:01N 36°33' E 014°13'1019.0
2017-Nov-18 02:30N 36°34' E 014°01'1019.1
2017-Nov-18 02:00N 36°36' E 013°49'1019.3
2017-Nov-18 01:30N 36°38' E 013°38'1219.1
2017-Nov-18 00:54N 36°41' E 013°24'47118.2
2017-Nov-16 23:00N 37°30' E 003°36'14321.5 070 / 11022.227.0 16.010.817.0
2017-Nov-16 16:20N 36°54' E 000°42'1218.8
2017-Nov-16 15:42N 36°50' E 000°28'27719.2
2017-Nov-16 01:19N 35°59' W 005°11'619.7
2017-Nov-16 01:00N 35°58' W 005°18'918.3
2017-Nov-16 00:30N 35°56' W 005°29'21616.5
2017-Nov-15 11:25N 37°11' W 009°42'818.5
2017-Nov-15 11:00N 37°18' W 009°44'1018.8
2017-Nov-15 10:28N 37°28' W 009°47'918.9
2017-Nov-15 10:00N 37°37' W 009°49'1019.3
2017-Nov-15 09:30N 37°46' W 009°52'1019.2
2017-Nov-15 09:00N 37°56' W 009°54'919.0
2017-Nov-15 08:30N 38°05' W 009°56'918.9
2017-Nov-15 08:00N 38°14' W 009°59'918.8
2017-Nov-15 07:30N 38°23' W 010°01'918.5
2017-Nov-15 07:00N 38°33' W 010°02'918.1
2017-Nov-15 06:30N 38°41' W 010°05'918.5
2017-Nov-15 06:00N 38°50' W 010°07'918.7
2017-Nov-15 05:30N 38°60' W 010°07'919.0
2017-Nov-15 05:00N 39°09' W 010°08'1019.1
2017-Nov-15 04:30N 39°19' W 010°07'918.5
2017-Nov-15 04:00N 39°28' W 010°07'918.8
2017-Nov-15 03:30N 39°37' W 010°07'45718.2
2017-Nov-14 02:26N 46°59' W 007°25'818.5
2017-Nov-14 01:58N 47°07' W 007°21'1018.8
2017-Nov-14 01:27N 47°16' W 007°16'918.7
2017-Nov-14 00:57N 47°25' W 007°10'818.4
2017-Nov-14 00:30N 47°32' W 007°05'917.7
2017-Nov-14 00:01N 47°39' W 006°57'917.7
2017-Nov-13 23:31N 47°46' W 006°49'917.5
2017-Nov-13 23:00N 47°53' W 006°41'917.7
2017-Nov-13 22:30N 48°01' W 006°35'1017.6
2017-Nov-13 21:56N 48°11' W 006°29'32916.5
2017-Nov-13 02:00N 50°45' E 000°57'1019.8
2017-Nov-13 01:30N 50°51' E 001°09'1020.4
2017-Nov-13 01:00N 50°57' E 001°22'1121.2
2017-Nov-13 00:30N 51°06' E 001°32'1019.6
2017-Nov-13 00:00N 51°14' E 001°41'1019.5
2017-Nov-12 23:30N 51°23' E 001°45'918.6
2017-Nov-12 23:00N 51°33' E 001°45'917.6
2017-Nov-12 22:30N 51°42' E 001°45'815.5
2017-Nov-12 22:00N 51°49' E 001°43'5 9.1
2017-Nov-12 21:30N 51°51' E 001°36'4 8.4
2017-Nov-12 21:00N 51°48' E 001°33'713.9
2017-Nov-12 20:30N 51°42' E 001°27'815.5
2017-Nov-12 20:01N 51°36' E 001°18'714.8
2017-Nov-12 19:30N 51°32' E 001°08'714.6
2017-Nov-12 19:00N 51°29' E 000°58'713.7
2017-Nov-12 18:30N 51°29' E 000°47'510.5
2017-Nov-12 18:00N 51°30' E 000°38'4 0.2
2017-Nov-11 17:40N 51°30' E 000°44'315.1
2017-Nov-11 17:27N 51°29' E 000°49'512.1
2017-Nov-11 17:00N 51°29' E 000°58'713.5
2017-Nov-11 16:31N 51°32' E 001°07'815.8
2017-Nov-11 16:01N 51°36' E 001°18'816.1
2017-Nov-11 15:31N 51°42' E 001°28'816.3
2017-Nov-11 15:01N 51°49' E 001°34'5 9.4
2017-Nov-11 14:30N 51°51' E 001°40'4 7.8
2017-Nov-11 14:00N 51°51' E 001°46'612.3
2017-Nov-11 13:30N 51°45' E 001°48'713.5
2017-Nov-11 13:00N 51°38' E 001°50'714.0
2017-Nov-11 12:30N 51°31' E 001°53'714.4
2017-Nov-11 12:00N 51°26' E 002°00'816.2
2017-Nov-11 11:30N 51°22' E 002°11'815.8
2017-Nov-11 11:00N 51°21' E 002°24'816.4
2017-Nov-11 10:30N 51°23' E 002°37'612.4
2017-Nov-11 10:00N 51°24' E 002°47'713.4
2017-Nov-11 09:30N 51°25' E 002°57'714.8
2017-Nov-11 09:00N 51°24' E 003°09'815.1
2017-Nov-11 08:30N 51°24' E 003°21'714.6
2017-Nov-11 08:00N 51°26' E 003°33'5 9.9
2017-Nov-11 07:30N 51°26' E 003°41'613.0
2017-Nov-11 07:00N 51°21' E 003°47'510.8
2017-Nov-11 06:30N 51°22' E 003°56'5 9.7
2017-Nov-11 06:00N 51°26' E 004°01'5 9.8
2017-Nov-11 05:30N 51°22' E 004°06'4 8.5
2017-Nov-11 05:00N 51°23' E 004°13'3 5.1
2017-Nov-11 04:30N 51°21' E 004°15'0 0.3
2017-Nov-11 03:58N 51°21' E 004°15'0 0.0
2017-Nov-11 03:28N 51°21' E 004°15'0 0.0
2017-Nov-11 03:00N 51°21' E 004°15'0 0.0
2017-Nov-11 02:30N 51°21' E 004°15'0 0.0
2017-Nov-11 01:59N 51°21' E 004°15'0 0.0
2017-Nov-11 01:29N 51°21' E 004°15'0 0.0
2017-Nov-11 01:01N 51°21' E 004°15'0 0.0
2017-Nov-11 00:30N 51°21' E 004°15'0 0.0
2017-Nov-11 00:00N 51°21' E 004°15'0 0.0
2017-Nov-10 23:28N 51°21' E 004°15'0 0.0
2017-Nov-10 23:00N 51°21' E 004°15'0 0.0
2017-Nov-10 22:31N 51°21' E 004°15'0 0.0
2017-Nov-10 22:01N 51°21' E 004°15'0 0.0
2017-Nov-10 21:31N 51°21' E 004°15'0 0.0
2017-Nov-10 20:59N 51°21' E 004°15'0 0.0
2017-Nov-10 20:31N 51°21' E 004°15'0 0.0
2017-Nov-10 19:57N 51°21' E 004°15'0 0.0
2017-Nov-10 19:28N 51°21' E 004°15'0 0.0
2017-Nov-10 19:00N 51°21' E 004°15'0 0.0
2017-Nov-10 18:30N 51°21' E 004°15'0 0.0
2017-Nov-10 18:00N 51°21' E 004°15'0 0.0
2017-Nov-10 17:30N 51°21' E 004°15'0 0.0
2017-Nov-10 17:00N 51°21' E 004°15'0 0.0
2017-Nov-10 16:30N 51°21' E 004°15'0 0.0
2017-Nov-10 16:00N 51°21' E 004°15'0 0.0
2017-Nov-10 15:31N 51°21' E 004°15'0 0.0
2017-Nov-10 15:00N 51°21' E 004°15'0 0.0
2017-Nov-10 14:26N 51°21' E 004°15'0 0.0
2017-Nov-10 14:01N 51°21' E 004°15'0 0.0
2017-Nov-10 13:21N 51°21' E 004°15'0 0.0
2017-Nov-10 13:01N 51°21' E 004°15'0 0.0
2017-Nov-10 12:31N 51°21' E 004°15'0 0.0
2017-Nov-10 12:01N 51°21' E 004°15'0 0.0
2017-Nov-10 11:31N 51°21' E 004°15'0 0.0
2017-Nov-10 11:00N 51°21' E 004°15'0 0.0
2017-Nov-10 10:31N 51°21' E 004°15'0 0.0
2017-Nov-10 09:58N 51°21' E 004°15'0 0.0
2017-Nov-10 09:29N 51°21' E 004°15'0 0.0
2017-Nov-10 09:01N 51°21' E 004°15'0 0.0
2017-Nov-10 08:30N 51°21' E 004°15'0 0.0
2017-Nov-10 08:01N 51°21' E 004°15'0 0.0
2017-Nov-10 07:29N 51°21' E 004°15'0 0.0
2017-Nov-10 07:00N 51°21' E 004°15'0 0.0
2017-Nov-10 06:26N 51°21' E 004°15'0 0.0
2017-Nov-10 06:01N 51°21' E 004°15'0 0.0
2017-Nov-10 05:30N 51°21' E 004°15'0 0.0
2017-Nov-10 05:01N 51°21' E 004°15'0 0.0
2017-Nov-10 04:31N 51°21' E 004°15'0 0.0
2017-Nov-10 04:01N 51°21' E 004°15'0 0.0
2017-Nov-10 03:31N 51°21' E 004°15'0 0.0
2017-Nov-10 03:00N 51°21' E 004°15'0 0.0
2017-Nov-10 02:31N 51°21' E 004°15'0 0.0
2017-Nov-10 02:00N 51°21' E 004°15'0 0.0
2017-Nov-10 01:31N 51°21' E 004°15'0 0.0
2017-Nov-10 00:59N 51°21' E 004°15'0 0.0
2017-Nov-10 00:30N 51°21' E 004°15'  
Track history (hours):
 
Tides and Currents Weather Stations Pressure Air Temp Water Temp Dewpoint Dewpoint Depression Visibility Wind Speed Wind Dir Waves Ship Positions

Bow Lima

Last reported at 2017-Nov-20 00:26 UTC. Time now 2017-Nov-22 09:24 UTC.
Position N 37°57' E 023°35'.

Length 144 m; draft 10 m.

Type: Ship (hazmat cat A). MMSI: 353610000.

Date/timePositionNaut miles runAvg speedWind from/ knotsBaromVisibWave heightAir tempDewpointWater temp
2017-Nov-20 00:26N 37°57' E 023°35'0 0.0
2017-Nov-19 23:59N 37°57' E 023°35'0 0.0
2017-Nov-19 23:29N 37°57' E 023°35'0 0.0
2017-Nov-19 22:59N 37°57' E 023°35'0 0.0
2017-Nov-19 22:29N 37°57' E 023°35'0 0.0
2017-Nov-19 21:59N 37°57' E 023°35'0 0.0
2017-Nov-19 21:29N 37°57' E 023°35'0 0.0
2017-Nov-19 20:59N 37°57' E 023°35'0 0.0
2017-Nov-19 20:26N 37°57' E 023°35'0 0.0
2017-Nov-19 19:59N 37°57' E 023°35'0 0.0
2017-Nov-19 19:29N 37°57' E 023°35'0 0.0
2017-Nov-19 18:59N 37°57' E 023°35'0 0.0
2017-Nov-19 18:29N 37°57' E 023°35'0 0.0
2017-Nov-19 17:59N 37°57' E 023°35'0 0.0
2017-Nov-19 17:29N 37°57' E 023°35'0 0.0
2017-Nov-19 16:59N 37°57' E 023°35'0 0.0
2017-Nov-19 16:29N 37°57' E 023°35'0 0.0
2017-Nov-19 15:59N 37°57' E 023°35'0 0.0
2017-Nov-19 15:29N 37°57' E 023°35'0 0.0
2017-Nov-19 14:59N 37°57' E 023°35'0 0.0
2017-Nov-19 14:29N 37°57' E 023°35'0 0.0
2017-Nov-19 13:59N 37°57' E 023°35'0 0.0
2017-Nov-19 13:29N 37°57' E 023°35'0 0.0
2017-Nov-19 12:59N 37°57' E 023°35'0 0.0
2017-Nov-19 12:29N 37°57' E 023°35'0 0.0
2017-Nov-19 11:59N 37°57' E 023°35'0 0.0
2017-Nov-19 11:30N 37°57' E 023°35'2 3.0
2017-Nov-19 11:00N 37°56' E 023°35'2 3.7
2017-Nov-19 10:31N 37°54' E 023°35'1 2.1
2017-Nov-19 10:00N 37°53' E 023°36'4 7.1
2017-Nov-19 09:30N 37°51' E 023°39'3 6.7
2017-Nov-19 09:00N 37°48' E 023°41'611.2
2017-Nov-19 08:30N 37°43' E 023°44'815.1
2017-Nov-19 08:00N 37°36' E 023°48'816.1
2017-Nov-19 07:29N 37°27' E 023°48'816.9
2017-Nov-19 07:00N 37°19' E 023°48'918.1
2017-Nov-19 06:30N 37°10' E 023°49'43516.8
2017-Nov-18 04:32N 36°24' E 014°48'119.2
2017-Nov-18 04:30N 36°25' E 014°47'1019.4
2017-Nov-18 04:00N 36°27' E 014°36'1019.4
2017-Nov-18 03:30N 36°30' E 014°24'1019.4
2017-Nov-18 03:01N 36°33' E 014°13'1019.0
2017-Nov-18 02:30N 36°34' E 014°01'1019.1
2017-Nov-18 02:00N 36°36' E 013°49'1019.3
2017-Nov-18 01:30N 36°38' E 013°38'1219.1
2017-Nov-18 00:54N 36°41' E 013°24'47118.2
2017-Nov-16 23:00N 37°30' E 003°36'14321.5 070 / 11022.227.0 16.010.817.0
2017-Nov-16 16:20N 36°54' E 000°42'1218.8
2017-Nov-16 15:42N 36°50' E 000°28'27719.2
2017-Nov-16 01:19N 35°59' W 005°11'619.7
2017-Nov-16 01:00N 35°58' W 005°18'918.3
2017-Nov-16 00:30N 35°56' W 005°29'21616.5
2017-Nov-15 11:25N 37°11' W 009°42'818.5
2017-Nov-15 11:00N 37°18' W 009°44'1018.8
2017-Nov-15 10:28N 37°28' W 009°47'918.9
2017-Nov-15 10:00N 37°37' W 009°49'1019.3
2017-Nov-15 09:30N 37°46' W 009°52'1019.2
2017-Nov-15 09:00N 37°56' W 009°54'919.0
2017-Nov-15 08:30N 38°05' W 009°56'918.9
2017-Nov-15 08:00N 38°14' W 009°59'918.8
2017-Nov-15 07:30N 38°23' W 010°01'918.5
2017-Nov-15 07:00N 38°33' W 010°02'918.1
2017-Nov-15 06:30N 38°41' W 010°05'918.5
2017-Nov-15 06:00N 38°50' W 010°07'918.7
2017-Nov-15 05:30N 38°60' W 010°07'919.0
2017-Nov-15 05:00N 39°09' W 010°08'1019.1
2017-Nov-15 04:30N 39°19' W 010°07'918.5
2017-Nov-15 04:00N 39°28' W 010°07'918.8
2017-Nov-15 03:30N 39°37' W 010°07'45718.2
2017-Nov-14 02:26N 46°59' W 007°25'818.5
2017-Nov-14 01:58N 47°07' W 007°21'1018.8
2017-Nov-14 01:27N 47°16' W 007°16'918.7
2017-Nov-14 00:57N 47°25' W 007°10'818.4
2017-Nov-14 00:30N 47°32' W 007°05'917.7
2017-Nov-14 00:01N 47°39' W 006°57'917.7
2017-Nov-13 23:31N 47°46' W 006°49'917.5
2017-Nov-13 23:00N 47°53' W 006°41'917.7
2017-Nov-13 22:30N 48°01' W 006°35'1017.6
2017-Nov-13 21:56N 48°11' W 006°29'32916.5
2017-Nov-13 02:00N 50°45' E 000°57'1019.8
2017-Nov-13 01:30N 50°51' E 001°09'1020.4
2017-Nov-13 01:00N 50°57' E 001°22'1121.2
2017-Nov-13 00:30N 51°06' E 001°32'1019.6
2017-Nov-13 00:00N 51°14' E 001°41'1019.5
2017-Nov-12 23:30N 51°23' E 001°45'918.6
2017-Nov-12 23:00N 51°33' E 001°45'917.6
2017-Nov-12 22:30N 51°42' E 001°45'815.5
2017-Nov-12 22:00N 51°49' E 001°43'5 9.1
2017-Nov-12 21:30N 51°51' E 001°36'4 8.4
2017-Nov-12 21:00N 51°48' E 001°33'713.9
2017-Nov-12 20:30N 51°42' E 001°27'815.5
2017-Nov-12 20:01N 51°36' E 001°18'714.8
2017-Nov-12 19:30N 51°32' E 001°08'714.6
2017-Nov-12 19:00N 51°29' E 000°58'713.7
2017-Nov-12 18:30N 51°29' E 000°47'510.5
2017-Nov-12 18:00N 51°30' E 000°38'4 0.2
2017-Nov-11 17:40N 51°30' E 000°44'315.1
2017-Nov-11 17:27N 51°29' E 000°49'512.1
2017-Nov-11 17:00N 51°29' E 000°58'713.5
2017-Nov-11 16:31N 51°32' E 001°07'815.8
2017-Nov-11 16:01N 51°36' E 001°18'816.1
2017-Nov-11 15:31N 51°42' E 001°28'816.3
2017-Nov-11 15:01N 51°49' E 001°34'5 9.4
2017-Nov-11 14:30N 51°51' E 001°40'4 7.8
2017-Nov-11 14:00N 51°51' E 001°46'612.3
2017-Nov-11 13:30N 51°45' E 001°48'713.5
2017-Nov-11 13:00N 51°38' E 001°50'714.0
2017-Nov-11 12:30N 51°31' E 001°53'714.4
2017-Nov-11 12:00N 51°26' E 002°00'816.2
2017-Nov-11 11:30N 51°22' E 002°11'815.8
2017-Nov-11 11:00N 51°21' E 002°24'816.4
2017-Nov-11 10:30N 51°23' E 002°37'612.4
2017-Nov-11 10:00N 51°24' E 002°47'713.4
2017-Nov-11 09:30N 51°25' E 002°57'714.8
2017-Nov-11 09:00N 51°24' E 003°09'815.1
2017-Nov-11 08:30N 51°24' E 003°21'714.6
2017-Nov-11 08:00N 51°26' E 003°33'5 9.9
2017-Nov-11 07:30N 51°26' E 003°41'613.0
2017-Nov-11 07:00N 51°21' E 003°47'510.8
2017-Nov-11 06:30N 51°22' E 003°56'5 9.7
2017-Nov-11 06:00N 51°26' E 004°01'5 9.8
2017-Nov-11 05:30N 51°22' E 004°06'4 8.5
2017-Nov-11 05:00N 51°23' E 004°13'3 5.1
2017-Nov-11 04:30N 51°21' E 004°15'0 0.3
2017-Nov-11 03:58N 51°21' E 004°15'0 0.0
2017-Nov-11 03:28N 51°21' E 004°15'0 0.0
2017-Nov-11 03:00N 51°21' E 004°15'0 0.0
2017-Nov-11 02:30N 51°21' E 004°15'0 0.0
2017-Nov-11 01:59N 51°21' E 004°15'0 0.0
2017-Nov-11 01:29N 51°21' E 004°15'0 0.0
2017-Nov-11 01:01N 51°21' E 004°15'0 0.0
2017-Nov-11 00:30N 51°21' E 004°15'0 0.0
2017-Nov-11 00:00N 51°21' E 004°15'0 0.0
2017-Nov-10 23:28N 51°21' E 004°15'0 0.0
2017-Nov-10 23:00N 51°21' E 004°15'0 0.0
2017-Nov-10 22:31N 51°21' E 004°15'0 0.0
2017-Nov-10 22:01N 51°21' E 004°15'0 0.0
2017-Nov-10 21:31N 51°21' E 004°15'0 0.0
2017-Nov-10 20:59N 51°21' E 004°15'0 0.0
2017-Nov-10 20:31N 51°21' E 004°15'0 0.0
2017-Nov-10 19:57N 51°21' E 004°15'0 0.0
2017-Nov-10 19:28N 51°21' E 004°15'0 0.0
2017-Nov-10 19:00N 51°21' E 004°15'0 0.0
2017-Nov-10 18:30N 51°21' E 004°15'0 0.0
2017-Nov-10 18:00N 51°21' E 004°15'0 0.0
2017-Nov-10 17:30N 51°21' E 004°15'0 0.0
2017-Nov-10 17:00N 51°21' E 004°15'0 0.0
2017-Nov-10 16:30N 51°21' E 004°15'0 0.0
2017-Nov-10 16:00N 51°21' E 004°15'0 0.0
2017-Nov-10 15:31N 51°21' E 004°15'0 0.0
2017-Nov-10 15:00N 51°21' E 004°15'0 0.0
2017-Nov-10 14:26N 51°21' E 004°15'0 0.0
2017-Nov-10 14:01N 51°21' E 004°15'0 0.0
2017-Nov-10 13:21N 51°21' E 004°15'0 0.0
2017-Nov-10 13:01N 51°21' E 004°15'0 0.0
2017-Nov-10 12:31N 51°21' E 004°15'0 0.0
2017-Nov-10 12:01N 51°21' E 004°15'0 0.0
2017-Nov-10 11:31N 51°21' E 004°15'0 0.0
2017-Nov-10 11:00N 51°21' E 004°15'0 0.0
2017-Nov-10 10:31N 51°21' E 004°15'0 0.0
2017-Nov-10 09:58N 51°21' E 004°15'0 0.0
2017-Nov-10 09:29N 51°21' E 004°15'0 0.0
2017-Nov-10 09:01N 51°21' E 004°15'0 0.0
2017-Nov-10 08:30N 51°21' E 004°15'0 0.0
2017-Nov-10 08:01N 51°21' E 004°15'0 0.0
2017-Nov-10 07:29N 51°21' E 004°15'0 0.0
2017-Nov-10 07:00N 51°21' E 004°15'0 0.0
2017-Nov-10 06:26N 51°21' E 004°15'0 0.0
2017-Nov-10 06:01N 51°21' E 004°15'0 0.0
2017-Nov-10 05:30N 51°21' E 004°15'0 0.0
2017-Nov-10 05:01N 51°21' E 004°15'0 0.0
2017-Nov-10 04:31N 51°21' E 004°15'0 0.0
2017-Nov-10 04:01N 51°21' E 004°15'0 0.0
2017-Nov-10 03:31N 51°21' E 004°15'0 0.0
2017-Nov-10 03:00N 51°21' E 004°15'0 0.0
2017-Nov-10 02:31N 51°21' E 004°15'0 0.0
2017-Nov-10 02:00N 51°21' E 004°15'0 0.0
2017-Nov-10 01:31N 51°21' E 004°15'0 0.0
2017-Nov-10 00:59N 51°21' E 004°15'0 0.0
2017-Nov-10 00:30N 51°21' E 004°15'  

Dump ship's entire track history